DARAJ65 OIYY-OIAD
Flight info
| Callsign | DARAJ65 |
|---|---|
| Flight time | N/A |
| Altitude | FL400 |
| Route | BONO3A BONOL LABOT PARUG ISN DAPEM DAPE1A |
| Aircraft | CL60/M-SADE3FGHIJ3J4J7P2RWXY/HB1D1 |
Departure
| Time | N/A |
|---|---|
| Airport | Shahid Sadooghi Airport (OIYY) |
Arrival
| Time | 2026-05-08 02:05 |
|---|---|
| Airport | Dezful Airport (OIAD) |
| Time | Latitude | Longitude | Altitude | Speed | Heading |
|---|---|---|---|---|---|
| 2026-05-08 01:11 | 32.71177 | 53.28449 | 38130 ft | 365 kts | 284° |
| 2026-05-08 01:12 | 32.72218 | 53.25617 | 38449 ft | 363 kts | 284° |
| 2026-05-08 01:12 | 32.73226 | 53.22868 | 38764 ft | 362 kts | 283° |
| 2026-05-08 01:12 | 32.74228 | 53.20127 | 38970 ft | 363 kts | 283° |
| 2026-05-08 01:12 | 32.75256 | 53.17318 | 39198 ft | 363 kts | 283° |
| 2026-05-08 01:13 | 32.76280 | 53.14521 | 39480 ft | 362 kts | 283° |
| 2026-05-08 01:13 | 32.77310 | 53.11705 | 39718 ft | 362 kts | 283° |
| 2026-05-08 01:13 | 32.78339 | 53.08884 | 39859 ft | 363 kts | 284° |
| 2026-05-08 01:13 | 32.79389 | 53.06011 | 40064 ft | 363 kts | 284° |
| 2026-05-08 01:14 | 32.80301 | 53.03130 | 40221 ft | 356 kts | 276° |
| 2026-05-08 01:14 | 32.80785 | 53.00215 | 40367 ft | 350 kts | 269° |
| 2026-05-08 01:14 | 32.80869 | 52.97277 | 40354 ft | 348 kts | 262° |
| 2026-05-08 01:15 | 32.80568 | 52.91323 | 40365 ft | 354 kts | 261° |
| 2026-05-08 01:15 | 32.80266 | 52.85384 | 40379 ft | 359 kts | 262° |
| 2026-05-08 01:16 | 32.79950 | 52.79225 | 40388 ft | 364 kts | 261° |
| 2026-05-08 01:16 | 32.79628 | 52.72961 | 40396 ft | 368 kts | 262° |
| 2026-05-08 01:17 | 32.79302 | 52.66682 | 40392 ft | 371 kts | 261° |
| 2026-05-08 01:17 | 32.78970 | 52.60354 | 40384 ft | 373 kts | 263° |
| 2026-05-08 01:18 | 32.78634 | 52.53952 | 40373 ft | 374 kts | 263° |
| 2026-05-08 01:18 | 32.78293 | 52.47555 | 40368 ft | 373 kts | 262° |
| 2026-05-08 01:19 | 32.77949 | 52.41168 | 40356 ft | 373 kts | 262° |
| 2026-05-08 01:19 | 32.77604 | 52.34825 | 40357 ft | 373 kts | 261° |
| 2026-05-08 01:20 | 32.77259 | 52.28534 | 40349 ft | 373 kts | 261° |
| 2026-05-08 01:20 | 32.76907 | 52.22162 | 40352 ft | 372 kts | 262° |
| 2026-05-08 01:21 | 32.76554 | 52.15844 | 40350 ft | 372 kts | 262° |
| 2026-05-08 01:21 | 32.76198 | 52.09524 | 40336 ft | 372 kts | 261° |
| 2026-05-08 01:22 | 32.75843 | 52.03258 | 40312 ft | 372 kts | 261° |
| 2026-05-08 01:22 | 32.75481 | 51.96949 | 40295 ft | 372 kts | 261° |
| 2026-05-08 01:23 | 32.75122 | 51.90743 | 40266 ft | 372 kts | 262° |
| 2026-05-08 01:23 | 32.74759 | 51.84502 | 40255 ft | 371 kts | 261° |
| 2026-05-08 01:24 | 32.74834 | 51.78300 | 40278 ft | 375 kts | 267° |
| 2026-05-08 01:24 | 32.75143 | 51.71988 | 40292 ft | 375 kts | 266° |
| 2026-05-08 01:25 | 32.75441 | 51.65750 | 40355 ft | 374 kts | 267° |
| 2026-05-08 01:25 | 32.75739 | 51.59416 | 40360 ft | 375 kts | 266° |
| 2026-05-08 01:26 | 32.76030 | 51.53110 | 40389 ft | 375 kts | 266° |
| 2026-05-08 01:26 | 32.76315 | 51.46901 | 40376 ft | 375 kts | 266° |
| 2026-05-08 01:27 | 32.76596 | 51.40661 | 40386 ft | 375 kts | 267° |
| 2026-05-08 01:27 | 32.76868 | 51.34509 | 40397 ft | 375 kts | 266° |
| 2026-05-08 01:28 | 32.77139 | 51.28334 | 40389 ft | 376 kts | 265° |
| 2026-05-08 01:28 | 32.77415 | 51.21983 | 40404 ft | 375 kts | 265° |
| 2026-05-08 01:29 | 32.77685 | 51.15655 | 40388 ft | 375 kts | 266° |
| 2026-05-08 01:29 | 32.77957 | 51.09258 | 40411 ft | 375 kts | 266° |
| 2026-05-08 01:30 | 32.78222 | 51.02936 | 40410 ft | 375 kts | 266° |
| 2026-05-08 01:30 | 32.78483 | 50.96592 | 40412 ft | 375 kts | 266° |
| 2026-05-08 01:31 | 32.78742 | 50.90205 | 40430 ft | 375 kts | 265° |
| 2026-05-08 01:31 | 32.78993 | 50.83921 | 40443 ft | 376 kts | 266° |
| 2026-05-08 01:32 | 32.79237 | 50.77778 | 40464 ft | 377 kts | 266° |
| 2026-05-08 01:32 | 32.79482 | 50.71551 | 40453 ft | 377 kts | 265° |
| 2026-05-08 01:33 | 32.79723 | 50.65367 | 40470 ft | 376 kts | 266° |
| 2026-05-08 01:33 | 32.79962 | 50.59115 | 40465 ft | 376 kts | 265° |
| 2026-05-08 01:34 | 32.80196 | 50.52864 | 40477 ft | 377 kts | 265° |
| 2026-05-08 01:34 | 32.80430 | 50.46592 | 40478 ft | 376 kts | 266° |
| 2026-05-08 01:35 | 32.80657 | 50.40398 | 40490 ft | 376 kts | 265° |
| 2026-05-08 01:35 | 32.80881 | 50.34198 | 40518 ft | 378 kts | 265° |
| 2026-05-08 01:36 | 32.81101 | 50.28025 | 40505 ft | 377 kts | 265° |
| 2026-05-08 01:36 | 32.81304 | 50.22255 | 40518 ft | 376 kts | 265° |
| 2026-05-08 01:37 | 32.81483 | 50.17097 | 40507 ft | 375 kts | 264° |
| 2026-05-08 01:38 | 32.81707 | 50.10736 | 40525 ft | 362 kts | 265° |
| 2026-05-08 01:38 | 32.81812 | 50.07700 | 40408 ft | 361 kts | 265° |
| 2026-05-08 01:38 | 32.81913 | 50.04659 | 39942 ft | 361 kts | 264° |
| 2026-05-08 01:38 | 32.82016 | 50.01613 | 39493 ft | 356 kts | 265° |
| 2026-05-08 01:39 | 32.82114 | 49.98694 | 39038 ft | 352 kts | 265° |
| 2026-05-08 01:39 | 32.82211 | 49.95788 | 38578 ft | 350 kts | 263° |
| 2026-05-08 01:39 | 32.82304 | 49.92911 | 38115 ft | 350 kts | 265° |
| 2026-05-08 01:39 | 32.82398 | 49.90013 | 37674 ft | 351 kts | 264° |
| 2026-05-08 01:40 | 32.82491 | 49.87032 | 37185 ft | 355 kts | 264° |
| 2026-05-08 01:40 | 32.82585 | 49.84004 | 36680 ft | 360 kts | 265° |
| 2026-05-08 01:40 | 32.82677 | 49.81025 | 36194 ft | 363 kts | 265° |
| 2026-05-08 01:40 | 32.82772 | 49.77987 | 35709 ft | 367 kts | 264° |
| 2026-05-08 01:41 | 32.82867 | 49.74932 | 35162 ft | 370 kts | 265° |
| 2026-05-08 01:41 | 32.82961 | 49.71891 | 34686 ft | 373 kts | 264° |
| 2026-05-08 01:41 | 32.83055 | 49.68784 | 34170 ft | 379 kts | 264° |
| 2026-05-08 01:41 | 32.83152 | 49.65612 | 33665 ft | 383 kts | 265° |
| 2026-05-08 01:42 | 32.83252 | 49.62349 | 33129 ft | 385 kts | 264° |
| 2026-05-08 01:42 | 32.83349 | 49.59098 | 32598 ft | 386 kts | 265° |
| 2026-05-08 01:42 | 32.83445 | 49.55842 | 32061 ft | 386 kts | 265° |
| 2026-05-08 01:42 | 32.83543 | 49.52515 | 31523 ft | 385 kts | 265° |
| 2026-05-08 01:43 | 32.83638 | 49.49252 | 30991 ft | 386 kts | 264° |
| 2026-05-08 01:43 | 32.83732 | 49.45996 | 30452 ft | 386 kts | 264° |
| 2026-05-08 01:43 | 32.83827 | 49.42697 | 29929 ft | 386 kts | 264° |
| 2026-05-08 01:43 | 32.83921 | 49.39344 | 29393 ft | 387 kts | 265° |
| 2026-05-08 01:44 | 32.84014 | 49.36035 | 28831 ft | 387 kts | 265° |
| 2026-05-08 01:44 | 32.84105 | 49.32835 | 28332 ft | 382 kts | 265° |
| 2026-05-08 01:44 | 32.84200 | 49.29495 | 27777 ft | 377 kts | 264° |
| 2026-05-08 01:44 | 32.84289 | 49.26258 | 27231 ft | 374 kts | 265° |
| 2026-05-08 01:45 | 32.84376 | 49.23080 | 26707 ft | 369 kts | 265° |
| 2026-05-08 01:45 | 32.84461 | 49.19989 | 26240 ft | 364 kts | 265° |
| 2026-05-08 01:45 | 32.84544 | 49.16878 | 25727 ft | 362 kts | 266° |
| 2026-05-08 01:45 | 32.84623 | 49.13831 | 25171 ft | 359 kts | 266° |
| 2026-05-08 01:46 | 32.84703 | 49.10779 | 24661 ft | 354 kts | 266° |
| 2026-05-08 01:46 | 32.84780 | 49.07842 | 24207 ft | 347 kts | 267° |
| 2026-05-08 01:46 | 32.84857 | 49.04877 | 23748 ft | 342 kts | 267° |
| 2026-05-08 01:46 | 32.84931 | 49.01963 | 23249 ft | 337 kts | 267° |
| 2026-05-08 01:47 | 32.85003 | 48.99137 | 22803 ft | 330 kts | 268° |
| 2026-05-08 01:47 | 32.85072 | 48.96378 | 22370 ft | 323 kts | 267° |
| 2026-05-08 01:47 | 32.85140 | 48.93636 | 21931 ft | 317 kts | 268° |
| 2026-05-08 01:48 | 32.85271 | 48.88302 | 21078 ft | 305 kts | 267° |
| 2026-05-08 01:48 | 32.85332 | 48.85740 | 20651 ft | 300 kts | 268° |
| 2026-05-08 01:48 | 32.85394 | 48.83145 | 20220 ft | 296 kts | 268° |
| 2026-05-08 01:48 | 32.85454 | 48.80663 | 19842 ft | 290 kts | 267° |
| 2026-05-08 01:49 | 32.85512 | 48.78195 | 19437 ft | 286 kts | 268° |
| 2026-05-08 01:49 | 32.85568 | 48.75778 | 19041 ft | 282 kts | 267° |
| 2026-05-08 01:49 | 32.85619 | 48.73346 | 18634 ft | 278 kts | 266° |
| 2026-05-08 01:49 | 32.85278 | 48.71079 | 18223 ft | 271 kts | 246° |
| 2026-05-08 01:50 | 32.84212 | 48.69187 | 17832 ft | 268 kts | 226° |
| 2026-05-08 01:50 | 32.82612 | 48.67839 | 17385 ft | 271 kts | 214° |
| 2026-05-08 01:50 | 32.80879 | 48.66672 | 16985 ft | 268 kts | 213° |
| 2026-05-08 01:50 | 32.79199 | 48.65536 | 16587 ft | 266 kts | 213° |
| 2026-05-08 01:51 | 32.77559 | 48.64426 | 16232 ft | 263 kts | 213° |
| 2026-05-08 01:51 | 32.75883 | 48.63292 | 15839 ft | 262 kts | 213° |
| 2026-05-08 01:51 | 32.74244 | 48.62183 | 15447 ft | 261 kts | 212° |
| 2026-05-08 01:51 | 32.72595 | 48.61066 | 15087 ft | 259 kts | 212° |
| 2026-05-08 01:52 | 32.71002 | 48.59988 | 14726 ft | 257 kts | 212° |
| 2026-05-08 01:52 | 32.69375 | 48.58887 | 14363 ft | 256 kts | 212° |
| 2026-05-08 01:52 | 32.67801 | 48.57821 | 13995 ft | 255 kts | 212° |
| 2026-05-08 01:52 | 32.66123 | 48.56877 | 13390 ft | 267 kts | 199° |
| 2026-05-08 01:53 | 32.64193 | 48.56680 | 12858 ft | 276 kts | 176° |
| 2026-05-08 01:53 | 32.62303 | 48.57377 | 12429 ft | 283 kts | 156° |
| 2026-05-08 01:53 | 32.60693 | 48.58786 | 12125 ft | 285 kts | 141° |
| 2026-05-08 01:53 | 32.59244 | 48.60515 | 11738 ft | 284 kts | 140° |
| 2026-05-08 01:54 | 32.57782 | 48.62081 | 11361 ft | 281 kts | 145° |
| 2026-05-08 01:54 | 32.56159 | 48.63538 | 10867 ft | 282 kts | 149° |
| 2026-05-08 01:54 | 32.54456 | 48.64803 | 10520 ft | 276 kts | 154° |
| 2026-05-08 01:54 | 32.52711 | 48.65871 | 10137 ft | 273 kts | 159° |
| 2026-05-08 01:55 | 32.50949 | 48.66738 | 9751 ft | 269 kts | 163° |
| 2026-05-08 01:55 | 32.49142 | 48.67427 | 9387 ft | 262 kts | 167° |
| 2026-05-08 01:55 | 32.47356 | 48.67927 | 9034 ft | 255 kts | 172° |
| 2026-05-08 01:55 | 32.45607 | 48.68250 | 8700 ft | 249 kts | 176° |
| 2026-05-08 01:56 | 32.43877 | 48.68413 | 8351 ft | 244 kts | 180° |
| 2026-05-08 01:56 | 32.42164 | 48.68424 | 8038 ft | 238 kts | 184° |
| 2026-05-08 01:56 | 32.40488 | 48.68292 | 7703 ft | 234 kts | 187° |
| 2026-05-08 01:56 | 32.38843 | 48.68021 | 7394 ft | 226 kts | 191° |
| 2026-05-08 01:57 | 32.37289 | 48.67632 | 7052 ft | 216 kts | 194° |
| 2026-05-08 01:57 | 32.35817 | 48.67139 | 6748 ft | 207 kts | 198° |
| 2026-05-08 01:57 | 32.34449 | 48.66568 | 6472 ft | 197 kts | 201° |
| 2026-05-08 01:57 | 32.33170 | 48.65929 | 6197 ft | 202 kts | 204° |
| 2026-05-08 01:58 | 32.31851 | 48.65159 | 5890 ft | 205 kts | 208° |
| 2026-05-08 01:58 | 32.30568 | 48.64272 | 5640 ft | 208 kts | 214° |
| 2026-05-08 01:58 | 32.29467 | 48.63072 | 5336 ft | 208 kts | 226° |
| 2026-05-08 01:58 | 32.28478 | 48.61844 | 5065 ft | 199 kts | 226° |
| 2026-05-08 01:59 | 32.27503 | 48.60644 | 4767 ft | 192 kts | 227° |
| 2026-05-08 01:59 | 32.26567 | 48.59494 | 4524 ft | 184 kts | 227° |
| 2026-05-08 01:59 | 32.25676 | 48.58399 | 4269 ft | 184 kts | 227° |
| 2026-05-08 01:59 | 32.24788 | 48.57309 | 4035 ft | 184 kts | 228° |
| 2026-05-08 02:00 | 32.23985 | 48.56112 | 3754 ft | 185 kts | 247° |
| 2026-05-08 02:00 | 32.23818 | 48.54608 | 3416 ft | 181 kts | 284° |
| 2026-05-08 02:00 | 32.24431 | 48.53340 | 3102 ft | 175 kts | 320° |
| 2026-05-08 02:00 | 32.25473 | 48.52553 | 2746 ft | 175 kts | 331° |
| 2026-05-08 02:01 | 32.26537 | 48.51841 | 2574 ft | 172 kts | 330° |
| 2026-05-08 02:01 | 32.27613 | 48.51110 | 2319 ft | 172 kts | 330° |
| 2026-05-08 02:01 | 32.28635 | 48.50416 | 2116 ft | 159 kts | 331° |
| 2026-05-08 02:01 | 32.29584 | 48.49772 | 1894 ft | 150 kts | 331° |
| 2026-05-08 02:02 | 32.30491 | 48.49164 | 1858 ft | 138 kts | 332° |
| 2026-05-08 02:02 | 32.31375 | 48.48581 | 1977 ft | 144 kts | 331° |
| 2026-05-08 02:02 | 32.32277 | 48.47971 | 2146 ft | 146 kts | 331° |
| 2026-05-08 02:02 | 32.33169 | 48.47363 | 2304 ft | 150 kts | 331° |
| 2026-05-08 02:03 | 32.34117 | 48.46717 | 2146 ft | 153 kts | 331° |
| 2026-05-08 02:03 | 32.35026 | 48.46094 | 1976 ft | 150 kts | 332° |
| 2026-05-08 02:03 | 32.35946 | 48.45469 | 1782 ft | 149 kts | 332° |
| 2026-05-08 02:03 | 32.36867 | 48.44850 | 1591 ft | 149 kts | 332° |
| 2026-05-08 02:04 | 32.37816 | 48.44254 | 1395 ft | 147 kts | 341° |
| 2026-05-08 02:04 | 32.38834 | 48.43892 | 1188 ft | 147 kts | 346° |
| 2026-05-08 02:04 | 32.39812 | 48.43484 | 989 ft | 148 kts | 336° |
| 2026-05-08 02:04 | 32.40653 | 48.42780 | 797 ft | 148 kts | 319° |
| 2026-05-08 02:05 | 32.41411 | 48.41908 | 641 ft | 141 kts | 320° |
| 2026-05-08 02:05 | 32.42164 | 48.41170 | 557 ft | 136 kts | 323° |
| 2026-05-08 02:05 | 32.42880 | 48.40475 | 491 ft | 119 kts | 323° |
| 2026-05-08 02:05 | 32.43260 | 48.40122 | 488 ft | 39 kts | 324° |
| 2026-05-08 02:06 | 32.43474 | 48.39915 | 483 ft | 27 kts | 319° |
| 2026-05-08 02:06 | 32.43518 | 48.39813 | 480 ft | 12 kts | 247° |
| 2026-05-08 02:06 | 32.43448 | 48.39761 | 481 ft | 14 kts | 151° |
| 2026-05-08 02:06 | 32.43365 | 48.39839 | 484 ft | 16 kts | 139° |
| 2026-05-08 02:07 | 32.43267 | 48.39911 | 486 ft | 16 kts | 182° |
| 2026-05-08 02:07 | 32.43236 | 48.39842 | 486 ft | 8 kts | 288° |
| 2026-05-08 02:07 | 32.43290 | 48.39738 | 484 ft | 11 kts | 290° |
| 2026-05-08 02:07 | 32.43264 | 48.39655 | 483 ft | 8 kts | 288° |
| 2026-05-08 02:08 | 32.43272 | 48.39641 | 483 ft | 0 kts | 318° |